sensor_id;sensor_type;location;lat;lon;timestamp;P1;durP1;ratioP1;P2;durP2;ratioP2
30378;SDS011;17168;49.164;9.060;2023-10-13T00:01:19;13.05;;;7.88;;
30378;SDS011;17168;49.164;9.060;2023-10-13T00:03:51;14.02;;;8.90;;
30378;SDS011;17168;49.164;9.060;2023-10-13T00:06:24;12.93;;;7.28;;
30378;SDS011;17168;49.164;9.060;2023-10-13T00:09:01;13.38;;;6.95;;
30378;SDS011;17168;49.164;9.060;2023-10-13T00:11:33;13.98;;;7.32;;
30378;SDS011;17168;49.164;9.060;2023-10-13T00:14:05;11.85;;;7.95;;
30378;SDS011;17168;49.164;9.060;2023-10-13T00:16:41;14.43;;;7.18;;
30378;SDS011;17168;49.164;9.060;2023-10-13T00:19:14;10.93;;;7.13;;
30378;SDS011;17168;49.164;9.060;2023-10-13T00:21:46;13.95;;;6.82;;
30378;SDS011;17168;49.164;9.060;2023-10-13T00:24:21;15.95;;;7.82;;
30378;SDS011;17168;49.164;9.060;2023-10-13T00:27:01;13.15;;;7.43;;
30378;SDS011;17168;49.164;9.060;2023-10-13T00:29:36;13.55;;;6.30;;
30378;SDS011;17168;49.164;9.060;2023-10-13T00:32:09;12.48;;;7.90;;
30378;SDS011;17168;49.164;9.060;2023-10-13T00:34:44;12.80;;;7.65;;
30378;SDS011;17168;49.164;9.060;2023-10-13T00:37:16;12.27;;;7.03;;
30378;SDS011;17168;49.164;9.060;2023-10-13T00:40:01;13.10;;;6.97;;
30378;SDS011;17168;49.164;9.060;2023-10-13T00:42:40;11.23;;;6.95;;
30378;SDS011;17168;49.164;9.060;2023-10-13T00:45:24;19.75;;;7.90;;
30378;SDS011;17168;49.164;9.060;2023-10-13T00:48:00;12.63;;;8.35;;
30378;SDS011;17168;49.164;9.060;2023-10-13T00:50:33;14.52;;;9.00;;
30378;SDS011;17168;49.164;9.060;2023-10-13T00:53:08;14.20;;;7.88;;
30378;SDS011;17168;49.164;9.060;2023-10-13T00:55:43;11.80;;;7.38;;
30378;SDS011;17168;49.164;9.060;2023-10-13T00:58:15;12.00;;;6.65;;
30378;SDS011;17168;49.164;9.060;2023-10-13T01:00:53;11.05;;;6.90;;
30378;SDS011;17168;49.164;9.060;2023-10-13T01:03:50;12.85;;;8.15;;
30378;SDS011;17168;49.164;9.060;2023-10-13T01:06:27;14.38;;;7.32;;
30378;SDS011;17168;49.164;9.060;2023-10-13T01:09:00;13.55;;;8.50;;
30378;SDS011;17168;49.164;9.060;2023-10-13T01:11:47;12.27;;;7.85;;
30378;SDS011;17168;49.164;9.060;2023-10-13T01:14:24;13.30;;;8.65;;
30378;SDS011;17168;49.164;9.060;2023-10-13T01:16:59;12.07;;;8.57;;
30378;SDS011;17168;49.164;9.060;2023-10-13T01:19:35;13.85;;;7.85;;
30378;SDS011;17168;49.164;9.060;2023-10-13T01:22:10;13.52;;;8.18;;
30378;SDS011;17168;49.164;9.060;2023-10-13T01:24:45;13.25;;;7.70;;
30378;SDS011;17168;49.164;9.060;2023-10-13T01:27:17;11.50;;;7.95;;
30378;SDS011;17168;49.164;9.060;2023-10-13T01:29:51;12.10;;;7.28;;
30378;SDS011;17168;49.164;9.060;2023-10-13T01:32:30;13.68;;;9.15;;
30378;SDS011;17168;49.164;9.060;2023-10-13T01:35:03;13.32;;;8.55;;
30378;SDS011;17168;49.164;9.060;2023-10-13T01:37:37;15.82;;;9.07;;
30378;SDS011;17168;49.164;9.060;2023-10-13T01:40:13;14.65;;;9.73;;
30378;SDS011;17168;49.164;9.060;2023-10-13T01:42:50;12.38;;;8.25;;
30378;SDS011;17168;49.164;9.060;2023-10-13T01:45:27;12.10;;;7.35;;
30378;SDS011;17168;49.164;9.060;2023-10-13T01:48:02;12.85;;;7.65;;
30378;SDS011;17168;49.164;9.060;2023-10-13T01:50:36;12.93;;;7.75;;
30378;SDS011;17168;49.164;9.060;2023-10-13T01:53:08;13.50;;;8.20;;
30378;SDS011;17168;49.164;9.060;2023-10-13T01:55:46;14.45;;;7.53;;
30378;SDS011;17168;49.164;9.060;2023-10-13T01:58:18;15.38;;;7.10;;
30378;SDS011;17168;49.164;9.060;2023-10-13T02:00:55;16.83;;;9.30;;
30378;SDS011;17168;49.164;9.060;2023-10-13T02:03:28;12.00;;;7.35;;
30378;SDS011;17168;49.164;9.060;2023-10-13T02:06:01;11.73;;;7.07;;
30378;SDS011;17168;49.164;9.060;2023-10-13T02:08:36;12.93;;;7.47;;
30378;SDS011;17168;49.164;9.060;2023-10-13T02:11:17;14.48;;;7.97;;
30378;SDS011;17168;49.164;9.060;2023-10-13T02:13:50;15.20;;;8.88;;
30378;SDS011;17168;49.164;9.060;2023-10-13T02:16:25;13.63;;;7.60;;
30378;SDS011;17168;49.164;9.060;2023-10-13T02:18:58;14.52;;;8.63;;
30378;SDS011;17168;49.164;9.060;2023-10-13T02:24:11;14.77;;;8.70;;
30378;SDS011;17168;49.164;9.060;2023-10-13T02:26:52;12.32;;;9.05;;
30378;SDS011;17168;49.164;9.060;2023-10-13T02:29:24;15.65;;;8.55;;
30378;SDS011;17168;49.164;9.060;2023-10-13T02:31:56;12.48;;;8.23;;
30378;SDS011;17168;49.164;9.060;2023-10-13T02:34:29;13.35;;;8.60;;
30378;SDS011;17168;49.164;9.060;2023-10-13T02:37:03;13.05;;;6.40;;
30378;SDS011;17168;49.164;9.060;2023-10-13T02:39:35;15.18;;;6.65;;
30378;SDS011;17168;49.164;9.060;2023-10-13T02:42:12;15.95;;;8.60;;
30378;SDS011;17168;49.164;9.060;2023-10-13T02:44:55;11.60;;;7.65;;
30378;SDS011;17168;49.164;9.060;2023-10-13T02:47:29;12.05;;;7.63;;
30378;SDS011;17168;49.164;9.060;2023-10-13T02:50:03;11.57;;;6.25;;
30378;SDS011;17168;49.164;9.060;2023-10-13T02:52:43;10.63;;;8.32;;
30378;SDS011;17168;49.164;9.060;2023-10-13T02:55:19;13.23;;;7.40;;
30378;SDS011;17168;49.164;9.060;2023-10-13T02:57:59;11.68;;;6.90;;
30378;SDS011;17168;49.164;9.060;2023-10-13T03:00:32;9.45;;;8.10;;
30378;SDS011;17168;49.164;9.060;2023-10-13T03:03:05;10.73;;;7.72;;
30378;SDS011;17168;49.164;9.060;2023-10-13T03:05:37;12.05;;;7.57;;
30378;SDS011;17168;49.164;9.060;2023-10-13T03:08:10;12.95;;;6.50;;
30378;SDS011;17168;49.164;9.060;2023-10-13T03:10:43;12.48;;;7.05;;
30378;SDS011;17168;49.164;9.060;2023-10-13T03:13:22;11.95;;;8.00;;
30378;SDS011;17168;49.164;9.060;2023-10-13T03:15:54;11.82;;;8.82;;
30378;SDS011;17168;49.164;9.060;2023-10-13T03:18:26;11.20;;;6.88;;
30378;SDS011;17168;49.164;9.060;2023-10-13T03:21:05;12.63;;;6.53;;
30378;SDS011;17168;49.164;9.060;2023-10-13T03:23:39;12.45;;;6.85;;
30378;SDS011;17168;49.164;9.060;2023-10-13T03:26:17;9.65;;;7.32;;
30378;SDS011;17168;49.164;9.060;2023-10-13T03:28:54;11.55;;;6.28;;
30378;SDS011;17168;49.164;9.060;2023-10-13T03:31:28;12.30;;;7.15;;
30378;SDS011;17168;49.164;9.060;2023-10-13T03:34:01;11.45;;;7.00;;
30378;SDS011;17168;49.164;9.060;2023-10-13T03:36:35;17.67;;;13.32;;
30378;SDS011;17168;49.164;9.060;2023-10-13T03:39:26;16.30;;;12.98;;
30378;SDS011;17168;49.164;9.060;2023-10-13T03:42:00;14.55;;;13.00;;
30378;SDS011;17168;49.164;9.060;2023-10-13T03:44:39;18.75;;;14.55;;
30378;SDS011;17168;49.164;9.060;2023-10-13T03:47:12;14.50;;;12.02;;
30378;SDS011;17168;49.164;9.060;2023-10-13T03:49:49;17.20;;;8.43;;
30378;SDS011;17168;49.164;9.060;2023-10-13T03:52:23;13.82;;;8.02;;
30378;SDS011;17168;49.164;9.060;2023-10-13T03:54:57;12.70;;;8.68;;
30378;SDS011;17168;49.164;9.060;2023-10-13T03:57:30;10.00;;;8.27;;
30378;SDS011;17168;49.164;9.060;2023-10-13T04:00:08;10.38;;;7.32;;
30378;SDS011;17168;49.164;9.060;2023-10-13T04:02:44;12.88;;;6.82;;
30378;SDS011;17168;49.164;9.060;2023-10-13T04:05:24;12.27;;;6.22;;
30378;SDS011;17168;49.164;9.060;2023-10-13T04:08:07;10.93;;;6.05;;
30378;SDS011;17168;49.164;9.060;2023-10-13T04:10:58;10.20;;;6.45;;
30378;SDS011;17168;49.164;9.060;2023-10-13T04:13:30;11.65;;;7.68;;
30378;SDS011;17168;49.164;9.060;2023-10-13T04:16:24;8.90;;;6.25;;
30378;SDS011;17168;49.164;9.060;2023-10-13T04:18:59;12.45;;;6.75;;
30378;SDS011;17168;49.164;9.060;2023-10-13T04:21:31;9.57;;;5.63;;
30378;SDS011;17168;49.164;9.060;2023-10-13T04:24:29;10.20;;;7.28;;
30378;SDS011;17168;49.164;9.060;2023-10-13T04:27:06;12.20;;;6.20;;
30378;SDS011;17168;49.164;9.060;2023-10-13T04:30:11;10.88;;;6.43;;
30378;SDS011;17168;49.164;9.060;2023-10-13T04:32:53;11.52;;;6.40;;
30378;SDS011;17168;49.164;9.060;2023-10-13T04:35:45;9.38;;;6.47;;
30378;SDS011;17168;49.164;9.060;2023-10-13T04:38:30;12.43;;;8.30;;
30378;SDS011;17168;49.164;9.060;2023-10-13T04:41:22;12.30;;;6.88;;
30378;SDS011;17168;49.164;9.060;2023-10-13T04:43:56;10.85;;;6.00;;
30378;SDS011;17168;49.164;9.060;2023-10-13T04:46:36;11.45;;;7.47;;
30378;SDS011;17168;49.164;9.060;2023-10-13T04:49:23;12.98;;;7.13;;
30378;SDS011;17168;49.164;9.060;2023-10-13T04:52:07;9.90;;;6.15;;
30378;SDS011;17168;49.164;9.060;2023-10-13T04:54:41;15.55;;;7.57;;
30378;SDS011;17168;49.164;9.060;2023-10-13T04:57:42;12.55;;;8.13;;
30378;SDS011;17168;49.164;9.060;2023-10-13T05:00:17;12.60;;;7.53;;
30378;SDS011;17168;49.164;9.060;2023-10-13T05:03:01;13.90;;;7.57;;
30378;SDS011;17168;49.164;9.060;2023-10-13T05:05:41;11.23;;;7.30;;
30378;SDS011;17168;49.164;9.060;2023-10-13T05:08:20;10.00;;;7.15;;
30378;SDS011;17168;49.164;9.060;2023-10-13T05:11:15;11.18;;;7.30;;
30378;SDS011;17168;49.164;9.060;2023-10-13T05:14:05;16.52;;;7.95;;
30378;SDS011;17168;49.164;9.060;2023-10-13T05:16:56;11.18;;;8.05;;
30378;SDS011;17168;49.164;9.060;2023-10-13T05:19:47;11.90;;;8.35;;
30378;SDS011;17168;49.164;9.060;2023-10-13T05:22:41;13.25;;;6.60;;
30378;SDS011;17168;49.164;9.060;2023-10-13T05:25:34;10.98;;;6.55;;
30378;SDS011;17168;49.164;9.060;2023-10-13T05:28:25;12.40;;;6.40;;
30378;SDS011;17168;49.164;9.060;2023-10-13T05:31:16;11.90;;;6.78;;
30378;SDS011;17168;49.164;9.060;2023-10-13T05:34:07;9.90;;;6.30;;
30378;SDS011;17168;49.164;9.060;2023-10-13T05:36:57;13.18;;;7.45;;
30378;SDS011;17168;49.164;9.060;2023-10-13T05:39:51;13.25;;;7.07;;
30378;SDS011;17168;49.164;9.060;2023-10-13T05:42:42;12.07;;;7.20;;
30378;SDS011;17168;49.164;9.060;2023-10-13T05:45:34;16.35;;;8.68;;
30378;SDS011;17168;49.164;9.060;2023-10-13T05:48:36;10.32;;;6.10;;
30378;SDS011;17168;49.164;9.060;2023-10-13T05:51:35;12.50;;;6.20;;
30378;SDS011;17168;49.164;9.060;2023-10-13T05:54:07;11.15;;;6.28;;
30378;SDS011;17168;49.164;9.060;2023-10-13T05:56:49;12.07;;;7.32;;
30378;SDS011;17168;49.164;9.060;2023-10-13T05:59:40;12.82;;;6.65;;
30378;SDS011;17168;49.164;9.060;2023-10-13T06:02:31;16.70;;;10.50;;
30378;SDS011;17168;49.164;9.060;2023-10-13T06:05:22;16.02;;;9.10;;
30378;SDS011;17168;49.164;9.060;2023-10-13T06:08:13;44.92;;;18.13;;
30378;SDS011;17168;49.164;9.060;2023-10-13T06:11:04;18.52;;;11.32;;
30378;SDS011;17168;49.164;9.060;2023-10-13T06:13:58;14.35;;;9.82;;
30378;SDS011;17168;49.164;9.060;2023-10-13T06:17:08;12.85;;;9.25;;
30378;SDS011;17168;49.164;9.060;2023-10-13T06:19:59;21.85;;;15.50;;
30378;SDS011;17168;49.164;9.060;2023-10-13T06:22:50;19.95;;;13.98;;
30378;SDS011;17168;49.164;9.060;2023-10-13T06:25:50;19.35;;;16.15;;
30378;SDS011;17168;49.164;9.060;2023-10-13T06:28:41;21.10;;;15.30;;
30378;SDS011;17168;49.164;9.060;2023-10-13T06:31:18;19.83;;;16.38;;
30378;SDS011;17168;49.164;9.060;2023-10-13T06:33:54;17.30;;;14.77;;
30378;SDS011;17168;49.164;9.060;2023-10-13T06:36:35;16.88;;;13.15;;
30378;SDS011;17168;49.164;9.060;2023-10-13T06:39:11;15.52;;;10.55;;
30378;SDS011;17168;49.164;9.060;2023-10-13T06:42:06;11.75;;;7.15;;
30378;SDS011;17168;49.164;9.060;2023-10-13T06:44:38;13.52;;;8.73;;
30378;SDS011;17168;49.164;9.060;2023-10-13T06:47:17;16.30;;;10.80;;
30378;SDS011;17168;49.164;9.060;2023-10-13T06:49:53;11.55;;;6.80;;
30378;SDS011;17168;49.164;9.060;2023-10-13T06:52:28;11.93;;;7.78;;
30378;SDS011;17168;49.164;9.060;2023-10-13T06:55:01;10.55;;;7.72;;
30378;SDS011;17168;49.164;9.060;2023-10-13T06:57:36;25.65;;;8.85;;
30378;SDS011;17168;49.164;9.060;2023-10-13T07:00:09;12.23;;;8.05;;
30378;SDS011;17168;49.164;9.060;2023-10-13T07:02:53;15.40;;;9.30;;
30378;SDS011;17168;49.164;9.060;2023-10-13T07:05:37;14.63;;;7.50;;
30378;SDS011;17168;49.164;9.060;2023-10-13T07:08:16;13.27;;;7.85;;
30378;SDS011;17168;49.164;9.060;2023-10-13T07:10:52;11.45;;;6.97;;
30378;SDS011;17168;49.164;9.060;2023-10-13T07:13:39;14.57;;;8.95;;
30378;SDS011;17168;49.164;9.060;2023-10-13T07:16:19;13.25;;;8.02;;
30378;SDS011;17168;49.164;9.060;2023-10-13T07:19:03;13.60;;;8.73;;
30378;SDS011;17168;49.164;9.060;2023-10-13T07:21:37;13.63;;;8.70;;
30378;SDS011;17168;49.164;9.060;2023-10-13T07:24:16;15.27;;;8.55;;
30378;SDS011;17168;49.164;9.060;2023-10-13T07:26:52;12.38;;;7.47;;
30378;SDS011;17168;49.164;9.060;2023-10-13T07:29:34;13.45;;;8.20;;
30378;SDS011;17168;49.164;9.060;2023-10-13T07:32:07;13.60;;;8.55;;
30378;SDS011;17168;49.164;9.060;2023-10-13T07:34:47;17.30;;;10.27;;
30378;SDS011;17168;49.164;9.060;2023-10-13T07:37:20;16.33;;;9.43;;
30378;SDS011;17168;49.164;9.060;2023-10-13T07:39:57;16.90;;;9.18;;
30378;SDS011;17168;49.164;9.060;2023-10-13T07:42:30;13.32;;;8.90;;
30378;SDS011;17168;49.164;9.060;2023-10-13T07:45:11;18.60;;;10.98;;
30378;SDS011;17168;49.164;9.060;2023-10-13T07:47:44;17.00;;;10.82;;
30378;SDS011;17168;49.164;9.060;2023-10-13T07:50:20;16.58;;;10.25;;
30378;SDS011;17168;49.164;9.060;2023-10-13T07:52:58;20.60;;;12.07;;
30378;SDS011;17168;49.164;9.060;2023-10-13T07:55:36;15.40;;;9.73;;
30378;SDS011;17168;49.164;9.060;2023-10-13T07:58:10;14.98;;;9.65;;
30378;SDS011;17168;49.164;9.060;2023-10-13T08:00:45;15.27;;;9.35;;
30378;SDS011;17168;49.164;9.060;2023-10-13T08:03:17;17.83;;;11.90;;
30378;SDS011;17168;49.164;9.060;2023-10-13T08:06:10;24.10;;;15.15;;
30378;SDS011;17168;49.164;9.060;2023-10-13T08:08:47;17.50;;;14.88;;
30378;SDS011;17168;49.164;9.060;2023-10-13T08:11:25;19.85;;;14.45;;
30378;SDS011;17168;49.164;9.060;2023-10-13T08:14:04;19.52;;;13.63;;
30378;SDS011;17168;49.164;9.060;2023-10-13T08:17:03;24.00;;;14.55;;
30378;SDS011;17168;49.164;9.060;2023-10-13T08:19:42;19.13;;;14.70;;
30378;SDS011;17168;49.164;9.060;2023-10-13T08:22:26;22.15;;;14.95;;
30378;SDS011;17168;49.164;9.060;2023-10-13T08:25:07;19.95;;;12.70;;
30378;SDS011;17168;49.164;9.060;2023-10-13T08:27:52;21.38;;;15.07;;
30378;SDS011;17168;49.164;9.060;2023-10-13T08:30:56;16.45;;;10.25;;
30378;SDS011;17168;49.164;9.060;2023-10-13T08:33:38;10.07;;;5.35;;
30378;SDS011;17168;49.164;9.060;2023-10-13T08:36:10;10.52;;;5.05;;
30378;SDS011;17168;49.164;9.060;2023-10-13T08:39:04;8.55;;;4.38;;
30378;SDS011;17168;49.164;9.060;2023-10-13T08:41:57;11.45;;;5.18;;
30378;SDS011;17168;49.164;9.060;2023-10-13T08:44:52;8.15;;;4.13;;
30378;SDS011;17168;49.164;9.060;2023-10-13T08:47:24;8.48;;;4.35;;
30378;SDS011;17168;49.164;9.060;2023-10-13T08:50:07;7.90;;;4.60;;
30378;SDS011;17168;49.164;9.060;2023-10-13T08:53:06;6.88;;;3.75;;
30378;SDS011;17168;49.164;9.060;2023-10-13T08:56:00;9.23;;;3.05;;
30378;SDS011;17168;49.164;9.060;2023-10-13T08:58:40;11.25;;;3.28;;
30378;SDS011;17168;49.164;9.060;2023-10-13T09:01:26;6.45;;;4.28;;
30378;SDS011;17168;49.164;9.060;2023-10-13T09:04:07;7.47;;;3.95;;
30378;SDS011;17168;49.164;9.060;2023-10-13T09:06:51;6.40;;;3.17;;
30378;SDS011;17168;49.164;9.060;2023-10-13T09:09:46;6.88;;;4.40;;
30378;SDS011;17168;49.164;9.060;2023-10-13T09:12:25;9.93;;;3.60;;
30378;SDS011;17168;49.164;9.060;2023-10-13T09:15:07;6.25;;;2.20;;
30378;SDS011;17168;49.164;9.060;2023-10-13T09:17:47;5.45;;;3.33;;
30378;SDS011;17168;49.164;9.060;2023-10-13T09:20:29;7.97;;;3.40;;
30378;SDS011;17168;49.164;9.060;2023-10-13T09:23:08;5.90;;;3.75;;
30378;SDS011;17168;49.164;9.060;2023-10-13T09:25:41;8.13;;;3.22;;
30378;SDS011;17168;49.164;9.060;2023-10-13T09:28:36;5.75;;;3.35;;
30378;SDS011;17168;49.164;9.060;2023-10-13T09:31:08;4.25;;;2.15;;
30378;SDS011;17168;49.164;9.060;2023-10-13T09:33:42;5.13;;;3.20;;
30378;SDS011;17168;49.164;9.060;2023-10-13T09:36:31;6.15;;;2.97;;
30378;SDS011;17168;49.164;9.060;2023-10-13T09:39:07;5.15;;;2.42;;
30378;SDS011;17168;49.164;9.060;2023-10-13T09:41:44;5.22;;;2.30;;
30378;SDS011;17168;49.164;9.060;2023-10-13T09:44:27;7.63;;;2.63;;
30378;SDS011;17168;49.164;9.060;2023-10-13T09:47:06;5.55;;;2.60;;
30378;SDS011;17168;49.164;9.060;2023-10-13T09:49:48;4.10;;;2.47;;
30378;SDS011;17168;49.164;9.060;2023-10-13T09:52:29;4.78;;;2.47;;
30378;SDS011;17168;49.164;9.060;2023-10-13T09:55:05;7.00;;;3.45;;
30378;SDS011;17168;49.164;9.060;2023-10-13T09:57:46;8.70;;;2.45;;
30378;SDS011;17168;49.164;9.060;2023-10-13T10:00:32;7.75;;;2.80;;
30378;SDS011;17168;49.164;9.060;2023-10-13T10:03:24;6.80;;;3.17;;
30378;SDS011;17168;49.164;9.060;2023-10-13T10:06:11;7.60;;;2.83;;
30378;SDS011;17168;49.164;9.060;2023-10-13T10:09:06;7.18;;;2.80;;
30378;SDS011;17168;49.164;9.060;2023-10-13T10:17:44;8.55;;;3.72;;
30378;SDS011;17168;49.164;9.060;2023-10-13T10:20:27;6.18;;;2.67;;
30378;SDS011;17168;49.164;9.060;2023-10-13T10:23:04;8.02;;;2.22;;
30378;SDS011;17168;49.164;9.060;2023-10-13T10:25:41;4.15;;;2.67;;
30378;SDS011;17168;49.164;9.060;2023-10-13T10:28:16;7.15;;;3.13;;
30378;SDS011;17168;49.164;9.060;2023-10-13T10:30:48;5.88;;;2.38;;
30378;SDS011;17168;49.164;9.060;2023-10-13T10:33:29;7.13;;;2.22;;
30378;SDS011;17168;49.164;9.060;2023-10-13T10:36:07;11.63;;;4.47;;
30378;SDS011;17168;49.164;9.060;2023-10-13T10:38:52;8.70;;;2.47;;
30378;SDS011;17168;49.164;9.060;2023-10-13T10:41:29;7.05;;;2.75;;
30378;SDS011;17168;49.164;9.060;2023-10-13T10:44:12;7.20;;;2.40;;
30378;SDS011;17168;49.164;9.060;2023-10-13T10:46:48;8.73;;;3.00;;
30378;SDS011;17168;49.164;9.060;2023-10-13T10:49:36;7.47;;;2.65;;
30378;SDS011;17168;49.164;9.060;2023-10-13T10:52:16;3.85;;;2.35;;
30378;SDS011;17168;49.164;9.060;2023-10-13T10:54:58;5.25;;;2.38;;
30378;SDS011;17168;49.164;9.060;2023-10-13T10:57:31;8.60;;;3.80;;
30378;SDS011;17168;49.164;9.060;2023-10-13T11:00:17;4.55;;;2.28;;
30378;SDS011;17168;49.164;9.060;2023-10-13T11:02:54;6.88;;;3.72;;
30378;SDS011;17168;49.164;9.060;2023-10-13T11:05:32;6.53;;;2.60;;
30378;SDS011;17168;49.164;9.060;2023-10-13T11:08:22;5.97;;;3.03;;
30378;SDS011;17168;49.164;9.060;2023-10-13T11:11:03;12.45;;;3.45;;
30378;SDS011;17168;49.164;9.060;2023-10-13T11:13:43;6.25;;;3.67;;
30378;SDS011;17168;49.164;9.060;2023-10-13T11:16:35;7.60;;;2.85;;
30378;SDS011;17168;49.164;9.060;2023-10-13T11:19:13;7.53;;;3.15;;
30378;SDS011;17168;49.164;9.060;2023-10-13T11:21:47;5.28;;;2.42;;
30378;SDS011;17168;49.164;9.060;2023-10-13T11:24:20;7.80;;;2.60;;
30378;SDS011;17168;49.164;9.060;2023-10-13T11:29:32;5.25;;;2.00;;
30378;SDS011;17168;49.164;9.060;2023-10-13T11:32:09;5.97;;;2.33;;
30378;SDS011;17168;49.164;9.060;2023-10-13T11:34:51;4.88;;;2.25;;
30378;SDS011;17168;49.164;9.060;2023-10-13T11:37:29;4.97;;;1.77;;
30378;SDS011;17168;49.164;9.060;2023-10-13T11:40:10;7.25;;;2.45;;
30378;SDS011;17168;49.164;9.060;2023-10-13T11:42:47;5.25;;;2.42;;
30378;SDS011;17168;49.164;9.060;2023-10-13T11:45:23;5.05;;;1.85;;
30378;SDS011;17168;49.164;9.060;2023-10-13T11:48:02;4.78;;;2.55;;
30378;SDS011;17168;49.164;9.060;2023-10-13T11:50:44;5.20;;;3.00;;
30378;SDS011;17168;49.164;9.060;2023-10-13T11:53:20;3.95;;;1.92;;
30378;SDS011;17168;49.164;9.060;2023-10-13T11:55:52;5.55;;;1.90;;
30378;SDS011;17168;49.164;9.060;2023-10-13T11:58:24;5.25;;;2.10;;
30378;SDS011;17168;49.164;9.060;2023-10-13T12:01:00;5.82;;;2.28;;
30378;SDS011;17168;49.164;9.060;2023-10-13T12:03:45;5.15;;;2.65;;
30378;SDS011;17168;49.164;9.060;2023-10-13T12:06:37;5.53;;;2.78;;
30378;SDS011;17168;49.164;9.060;2023-10-13T12:09:12;8.38;;;2.45;;
30378;SDS011;17168;49.164;9.060;2023-10-13T12:11:50;3.50;;;1.83;;
30378;SDS011;17168;49.164;9.060;2023-10-13T12:14:22;5.90;;;2.40;;
30378;SDS011;17168;49.164;9.060;2023-10-13T12:17:09;4.20;;;2.45;;
30378;SDS011;17168;49.164;9.060;2023-10-13T12:19:46;4.70;;;1.80;;
30378;SDS011;17168;49.164;9.060;2023-10-13T12:22:23;4.15;;;1.95;;
30378;SDS011;17168;49.164;9.060;2023-10-13T12:25:09;5.10;;;2.50;;
30378;SDS011;17168;49.164;9.060;2023-10-13T12:28:00;6.93;;;2.05;;
30378;SDS011;17168;49.164;9.060;2023-10-13T12:30:47;4.32;;;2.08;;
30378;SDS011;17168;49.164;9.060;2023-10-13T12:33:25;4.20;;;2.00;;
30378;SDS011;17168;49.164;9.060;2023-10-13T12:36:08;7.82;;;2.30;;
30378;SDS011;17168;49.164;9.060;2023-10-13T12:38:53;4.15;;;1.75;;
30378;SDS011;17168;49.164;9.060;2023-10-13T12:41:42;4.50;;;3.08;;
30378;SDS011;17168;49.164;9.060;2023-10-13T12:44:33;3.63;;;1.70;;
30378;SDS011;17168;49.164;9.060;2023-10-13T12:47:24;4.30;;;1.80;;
30378;SDS011;17168;49.164;9.060;2023-10-13T12:50:15;3.50;;;1.92;;
30378;SDS011;17168;49.164;9.060;2023-10-13T12:53:06;10.35;;;2.42;;
30378;SDS011;17168;49.164;9.060;2023-10-13T12:55:45;6.03;;;2.35;;
30378;SDS011;17168;49.164;9.060;2023-10-13T12:58:20;6.75;;;2.40;;
30378;SDS011;17168;49.164;9.060;2023-10-13T13:00:59;7.05;;;2.10;;
30378;SDS011;17168;49.164;9.060;2023-10-13T13:03:38;5.40;;;1.77;;
30378;SDS011;17168;49.164;9.060;2023-10-13T13:06:16;4.85;;;1.83;;
30378;SDS011;17168;49.164;9.060;2023-10-13T13:08:49;4.70;;;1.90;;
30378;SDS011;17168;49.164;9.060;2023-10-13T13:11:21;4.47;;;2.20;;
30378;SDS011;17168;49.164;9.060;2023-10-13T13:14:00;5.10;;;2.90;;
30378;SDS011;17168;49.164;9.060;2023-10-13T13:16:32;3.38;;;1.80;;
30378;SDS011;17168;49.164;9.060;2023-10-13T13:19:05;5.88;;;2.13;;
30378;SDS011;17168;49.164;9.060;2023-10-13T13:21:46;7.53;;;2.40;;
30378;SDS011;17168;49.164;9.060;2023-10-13T13:24:24;7.47;;;2.10;;
30378;SDS011;17168;49.164;9.060;2023-10-13T13:26:56;5.75;;;2.28;;
30378;SDS011;17168;49.164;9.060;2023-10-13T13:29:39;8.85;;;2.72;;
30378;SDS011;17168;49.164;9.060;2023-10-13T13:32:12;3.60;;;1.88;;
30378;SDS011;17168;49.164;9.060;2023-10-13T13:35:00;5.75;;;2.30;;
30378;SDS011;17168;49.164;9.060;2023-10-13T13:37:39;5.13;;;2.05;;
30378;SDS011;17168;49.164;9.060;2023-10-13T13:40:14;4.55;;;1.50;;
30378;SDS011;17168;49.164;9.060;2023-10-13T13:42:48;5.70;;;1.80;;
30378;SDS011;17168;49.164;9.060;2023-10-13T13:45:23;6.85;;;2.42;;
30378;SDS011;17168;49.164;9.060;2023-10-13T13:48:06;5.13;;;1.40;;
30378;SDS011;17168;49.164;9.060;2023-10-13T13:50:39;4.28;;;1.42;;
30378;SDS011;17168;49.164;9.060;2023-10-13T13:53:12;3.80;;;1.50;;
30378;SDS011;17168;49.164;9.060;2023-10-13T13:55:45;6.50;;;2.20;;
30378;SDS011;17168;49.164;9.060;2023-10-13T13:58:17;4.07;;;1.42;;
30378;SDS011;17168;49.164;9.060;2023-10-13T14:00:52;3.35;;;1.63;;
30378;SDS011;17168;49.164;9.060;2023-10-13T14:03:32;4.78;;;1.50;;
30378;SDS011;17168;49.164;9.060;2023-10-13T14:06:04;5.78;;;1.80;;
30378;SDS011;17168;49.164;9.060;2023-10-13T14:08:38;4.93;;;1.92;;
30378;SDS011;17168;49.164;9.060;2023-10-13T14:11:10;5.47;;;1.77;;
30378;SDS011;17168;49.164;9.060;2023-10-13T14:13:45;5.82;;;2.05;;
30378;SDS011;17168;49.164;9.060;2023-10-13T14:16:24;3.88;;;2.20;;
30378;SDS011;17168;49.164;9.060;2023-10-13T14:18:56;5.30;;;2.05;;
30378;SDS011;17168;49.164;9.060;2023-10-13T14:21:29;4.30;;;1.88;;
30378;SDS011;17168;49.164;9.060;2023-10-13T14:24:02;4.45;;;1.77;;
30378;SDS011;17168;49.164;9.060;2023-10-13T14:26:40;3.95;;;2.03;;
30378;SDS011;17168;49.164;9.060;2023-10-13T14:29:14;5.80;;;2.08;;
30378;SDS011;17168;49.164;9.060;2023-10-13T14:32:04;3.85;;;1.58;;
30378;SDS011;17168;49.164;9.060;2023-10-13T14:34:36;5.00;;;2.42;;
30378;SDS011;17168;49.164;9.060;2023-10-13T14:37:08;5.35;;;3.05;;
30378;SDS011;17168;49.164;9.060;2023-10-13T14:39:58;5.70;;;2.03;;
30378;SDS011;17168;49.164;9.060;2023-10-13T14:42:31;3.25;;;1.63;;
30378;SDS011;17168;49.164;9.060;2023-10-13T14:45:07;4.10;;;1.42;;
30378;SDS011;17168;49.164;9.060;2023-10-13T14:47:48;3.42;;;1.70;;
30378;SDS011;17168;49.164;9.060;2023-10-13T14:50:20;8.38;;;1.60;;
30378;SDS011;17168;49.164;9.060;2023-10-13T14:52:52;4.78;;;2.03;;
30378;SDS011;17168;49.164;9.060;2023-10-13T14:55:25;5.13;;;1.85;;
30378;SDS011;17168;49.164;9.060;2023-10-13T14:58:10;4.22;;;1.33;;
30378;SDS011;17168;49.164;9.060;2023-10-13T15:00:47;2.40;;;1.23;;
30378;SDS011;17168;49.164;9.060;2023-10-13T15:03:22;4.35;;;1.63;;
30378;SDS011;17168;49.164;9.060;2023-10-13T15:05:54;2.88;;;1.65;;
30378;SDS011;17168;49.164;9.060;2023-10-13T15:08:26;4.72;;;1.55;;
30378;SDS011;17168;49.164;9.060;2023-10-13T15:11:07;4.03;;;1.60;;
30378;SDS011;17168;49.164;9.060;2023-10-13T15:13:44;6.43;;;1.55;;
30378;SDS011;17168;49.164;9.060;2023-10-13T15:16:17;4.07;;;1.00;;
30378;SDS011;17168;49.164;9.060;2023-10-13T15:18:53;4.15;;;2.25;;
30378;SDS011;17168;49.164;9.060;2023-10-13T15:21:26;4.25;;;1.60;;
30378;SDS011;17168;49.164;9.060;2023-10-13T15:24:08;2.78;;;1.13;;
30378;SDS011;17168;49.164;9.060;2023-10-13T15:26:58;3.58;;;1.60;;
30378;SDS011;17168;49.164;9.060;2023-10-13T15:29:34;4.00;;;1.77;;
30378;SDS011;17168;49.164;9.060;2023-10-13T15:32:08;6.13;;;2.17;;
30378;SDS011;17168;49.164;9.060;2023-10-13T15:34:49;4.72;;;1.60;;
30378;SDS011;17168;49.164;9.060;2023-10-13T15:37:21;3.75;;;1.40;;
30378;SDS011;17168;49.164;9.060;2023-10-13T15:39:57;5.32;;;1.80;;
30378;SDS011;17168;49.164;9.060;2023-10-13T15:42:30;3.97;;;2.85;;
30378;SDS011;17168;49.164;9.060;2023-10-13T15:45:02;6.50;;;1.85;;
30378;SDS011;17168;49.164;9.060;2023-10-13T15:47:48;4.40;;;1.48;;
30378;SDS011;17168;49.164;9.060;2023-10-13T15:50:26;3.78;;;1.52;;
30378;SDS011;17168;49.164;9.060;2023-10-13T15:53:01;5.03;;;1.52;;
30378;SDS011;17168;49.164;9.060;2023-10-13T15:55:35;4.32;;;1.48;;
30378;SDS011;17168;49.164;9.060;2023-10-13T15:58:08;4.80;;;1.30;;
30378;SDS011;17168;49.164;9.060;2023-10-13T16:00:40;3.65;;;1.55;;
30378;SDS011;17168;49.164;9.060;2023-10-13T16:03:13;4.10;;;1.85;;